Aeroporto :
LOGIN :

Iscrizione | Disclaimer

   EN    FR    IT 

 










Sommario :    VFR   VFR Marginale   IFR   IFR Intensivo   IFR Molto Intensivo
Visibilità : 
Base nubi : 
>= 8 km
>= 3000ft
5 / 8 km
1000 / 3000 ft
1500m / 5 km
500 / 1000 ft
800 / 1500m
200 / 500 ft
< 800m
< 200 ft
Simboli :   Temporali  Nebbia  Neve Forte  Precipitazioni Forti  Vento > 20 kt
SIGMETs :   Varie  Temporali  Ghiacco  Turbolenza  Onda orograficha  Ceneri Vulcaniche







- Altitudine del aeroporto : 1302 ft
- Codice IATA : GNB
- Carte del aeroporto


LFLS - Grenoble / St. Geoirs

ULTIMO METAR :
  • 250900Z AUTO 36007KT 290V050 6000 BKN016 OVC054 08/04 Q1023 TEMPO BKN014

METARs OBSOLETI :
  • 250830Z AUTO VRB04KT 5000 BR OVC013 07/04 Q1023 NOSIG
  • 250800Z AUTO 34007KT 290V020 5000 BR OVC013 07/04 Q1023 BECMG SCT020
  • 250730Z AUTO 34006KT 310V040 5000 BR OVC013 07/04 Q1023 BECMG SCT020
  • 250700Z AUTO VRB05KT 5000 BR OVC013 07/04 Q1023 TEMPO BKN007
  • 250630Z AUTO 33005KT 290V020 4900 BR OVC014 07/04 Q1023 TEMPO BKN007

TAF TAF LFLS
Valido dal 25 a 09 ore il 26 a 09 ore UTC


250800Z 2509/2609 34010KT 9999 BKN020
PROB40
TEMPO 2509/2511 5000 BR BKN014
BECMG 2511/2513 34015G25KT CAVOK
PROB40
TEMPO 2515/2520 34020G35KT
BECMG 2520/2522 36012KT
TEMPO 2603/2609 BKN009
ATIS : +33 4 76 65 55 89
Nessun NOTAM noto per questo aeroporto.
2 SIGMETs conosciuti per la FIR Marseille (LFMM) :
 
Turbolenza severa
LFMM SIGMET 2 VALID 250900/251200 LFPW
LFMM MARSEILLE FIR/UIR SEV TURB FCST WI N4245 E00230 - N4345 E00245 - N4345 E00315 - N4315 E00300 - N4230 E00415 - N4215 E00330 - N4245 E00230 SFC/FL060 STNR INTSF=
Turbolenza severa
LFMM SIGMET 1 VALID 250900/251200 LFPW
LFMM MARSEILLE FIR/UIR SEV TURB FCST WI N4415 E00430 - N4445 E00345 - N4500 E00415 - N4445 E00600 - N4430 E00600 - N4415 E00500 - N4330 E00515 - N4330 E00445 - N4415 E00430 SFC/FL060 STNR INTSF=



MetMap, La meteo Aeronautica in un colpo d'occhio ! - Copyright ORBIFLY Dicembre 2007 - Disclaimer

ORBIFLY MET'MAP TEAM :

Programmazione e sviluppo : Alexandra Zaïnal
Concezione e sviluppo : Baudouin d'Aumeries
Co-Programmazione e sviluppo : Marc-Olivier Méhu
Supporto tecnico e logistico : Manuel Goepfert
Aiuto per la traduzione : Arnaldo La Scala

Contatto : metmap@orbifly.com




FONTI E CREDITI :

   NOAA